createdAt,value
2023-01-27T00:00:31.692Z,27.98
2023-01-27T00:04:34.717Z,33.30
2023-01-27T00:08:38.836Z,30.70
2023-01-27T00:12:59.188Z,30.80
2023-01-27T00:17:02.220Z,28.30
2023-01-27T00:21:22.782Z,28.38
2023-01-27T00:25:26.977Z,27.20
2023-01-27T00:29:29.899Z,29.33
2023-01-27T00:33:32.743Z,29.48
2023-01-27T00:37:35.962Z,29.10
2023-01-27T00:41:43.886Z,24.20
2023-01-27T00:45:51.206Z,28.33
2023-01-27T00:49:54.010Z,26.40
2023-01-27T00:53:57.159Z,29.17
2023-01-27T00:58:01.329Z,23.67
2023-01-27T01:02:04.249Z,29.80
2023-01-27T01:06:09.354Z,24.40
2023-01-27T01:10:12.843Z,28.80
2023-01-27T01:14:17.238Z,25.80
2023-01-27T01:18:20.002Z,21.80
2023-01-27T01:22:22.803Z,18.25
2023-01-27T01:26:25.561Z,14.43
2023-01-27T01:30:31.829Z,16.80
2023-01-27T01:34:34.624Z,13.00
2023-01-27T01:38:37.518Z,18.80
2023-01-27T01:42:54.370Z,14.88
2023-01-27T01:46:59.289Z,13.15
2023-01-27T01:51:08.370Z,12.73
2023-01-27T01:55:11.581Z,13.30
2023-01-27T01:59:18.568Z,13.13
2023-01-27T02:03:23.721Z,12.55
2023-01-27T02:07:32.481Z,11.73
2023-01-27T02:11:35.308Z,15.80
2023-01-27T02:15:38.770Z,11.57
2023-01-27T02:19:52.346Z,12.77
2023-01-27T02:24:00.894Z,13.23
2023-01-27T02:28:08.160Z,12.82
2023-01-27T02:32:23.547Z,16.15
2023-01-27T02:36:30.701Z,16.47
2023-01-27T02:40:35.444Z,13.13
2023-01-27T02:44:39.697Z,16.48
2023-01-27T02:48:42.581Z,18.20
2023-01-27T02:52:45.436Z,17.60
2023-01-27T02:56:48.550Z,19.38
2023-01-27T03:00:54.360Z,22.10
2023-01-27T03:04:57.245Z,23.40
2023-01-27T03:09:00.528Z,22.52
2023-01-27T03:13:04.232Z,20.90
2023-01-27T03:17:26.167Z,21.10
2023-01-27T03:21:28.906Z,21.67
2023-01-27T03:25:32.053Z,22.58
2023-01-27T03:29:53.038Z,20.90
2023-01-27T03:33:57.320Z,26.83
2023-01-27T03:38:32.017Z,20.60
2023-01-27T03:42:52.515Z,16.70
2023-01-27T03:46:55.355Z,20.77
2023-01-27T03:51:00.217Z,21.77
2023-01-27T03:55:03.068Z,23.85
2023-01-27T03:59:05.880Z,20.58
2023-01-27T04:03:26.208Z,25.30
2023-01-27T04:07:30.329Z,27.50
2023-01-27T04:11:50.431Z,22.20
2023-01-27T04:15:55.444Z,25.88
2023-01-27T04:19:58.394Z,26.50
2023-01-27T04:24:03.791Z,18.73
2023-01-27T04:28:06.624Z,25.67
2023-01-27T04:32:10.811Z,23.80
2023-01-27T04:36:14.063Z,23.05
2023-01-27T04:40:19.335Z,25.67
2023-01-27T04:44:22.122Z,29.13
2023-01-27T04:48:24.907Z,30.65
2023-01-27T04:52:27.753Z,25.67
2023-01-27T04:56:33.358Z,24.60
2023-01-27T05:00:36.183Z,27.23
2023-01-27T05:04:39.530Z,25.15
2023-01-27T05:08:42.394Z,26.95
2023-01-27T05:12:46.587Z,25.08
2023-01-27T05:16:49.389Z,26.88
2023-01-27T05:20:52.361Z,27.02
2023-01-27T05:24:55.137Z,24.63
2023-01-27T05:29:00.177Z,27.90
2023-01-27T05:33:02.885Z,30.23
2023-01-27T05:37:05.666Z,26.38
2023-01-27T05:41:10.267Z,27.25
2023-01-27T05:45:14.801Z,32.50
2023-01-27T05:49:17.874Z,29.85
2023-01-27T05:53:20.701Z,24.73
2023-01-27T05:57:23.457Z,26.65
2023-01-27T06:01:30.269Z,28.90
2023-01-27T06:05:33.071Z,25.85
2023-01-27T06:09:35.827Z,27.90
2023-01-27T06:13:39.263Z,28.45
2023-01-27T06:17:43.428Z,31.63
2023-01-27T06:21:46.205Z,28.33
2023-01-27T06:25:50.063Z,28.27
2023-01-27T06:29:53.383Z,27.98
2023-01-27T06:33:57.642Z,32.08
2023-01-27T06:38:01.657Z,37.45
2023-01-27T06:42:04.826Z,27.90
2023-01-27T06:46:07.830Z,34.20
2023-01-27T06:50:13.359Z,33.83
2023-01-27T06:54:16.664Z,31.98
2023-01-27T06:58:19.459Z,34.58
2023-01-27T07:02:22.331Z,26.90
2023-01-27T07:06:26.492Z,32.72
2023-01-27T07:10:29.360Z,28.88
2023-01-27T07:14:32.199Z,26.73
2023-01-27T07:18:35.219Z,38.15
2023-01-27T07:22:39.390Z,30.63
2023-01-27T07:26:43.784Z,33.78
2023-01-27T07:30:46.590Z,34.10
2023-01-27T07:34:49.380Z,29.50
2023-01-27T07:38:53.522Z,33.72
2023-01-27T07:42:59.571Z,34.92
2023-01-27T07:47:03.380Z,34.50
2023-01-27T07:51:06.252Z,40.95
2023-01-27T07:55:11.171Z,38.35
2023-01-27T07:59:14.336Z,47.08
2023-01-27T08:03:23.266Z,37.63
2023-01-27T08:07:26.053Z,35.75
2023-01-27T08:11:30.250Z,33.90
2023-01-27T08:15:33.063Z,39.55
2023-01-27T08:19:35.869Z,34.35
2023-01-27T08:23:38.721Z,32.10
2023-01-27T08:27:42.859Z,31.92
2023-01-27T08:31:45.792Z,32.85
2023-01-27T08:35:49.339Z,36.53
2023-01-27T08:39:52.177Z,35.20
2023-01-27T08:43:56.683Z,36.03
2023-01-27T08:47:59.536Z,36.08
2023-01-27T08:52:02.339Z,31.23
2023-01-27T08:56:07.554Z,29.58
2023-01-27T09:00:14.097Z,29.30
2023-01-27T09:04:17.108Z,30.02
2023-01-27T09:08:19.920Z,32.60
2023-01-27T09:12:22.690Z,25.08
2023-01-27T09:16:26.941Z,32.30
2023-01-27T09:20:31.907Z,37.47
2023-01-27T09:24:34.696Z,34.47
2023-01-27T09:28:37.500Z,36.15
2023-01-27T09:32:42.243Z,30.25
2023-01-27T09:36:48.396Z,35.33
2023-01-27T09:45:25.204Z,33.00
2023-01-27T09:49:43.223Z,35.97
2023-01-27T09:54:04.433Z,32.42
2023-01-27T09:58:17.843Z,30.45
2023-01-27T10:02:34.992Z,30.33
2023-01-27T10:06:56.812Z,33.13
2023-01-27T10:11:13.010Z,31.63
2023-01-27T10:15:32.611Z,33.15
2023-01-27T10:19:50.213Z,26.67
2023-01-27T10:24:05.638Z,28.20
2023-01-27T10:28:13.073Z,21.35
2023-01-27T10:32:26.680Z,29.92
2023-01-27T10:36:30.898Z,27.80
2023-01-27T10:40:41.982Z,33.25
2023-01-27T10:45:01.000Z,26.48
2023-01-27T10:49:07.876Z,24.98
2023-01-27T10:53:14.962Z,23.88
2023-01-27T10:57:25.636Z,21.88
2023-01-27T11:01:33.469Z,22.23
2023-01-27T11:05:40.043Z,23.65
2023-01-27T11:09:49.940Z,23.50
2023-01-27T11:14:02.654Z,23.85
2023-01-27T11:18:12.414Z,24.70
2023-01-27T11:22:21.173Z,25.08
2023-01-27T11:26:32.535Z,24.65
2023-01-27T11:30:43.771Z,19.88
2023-01-27T11:34:55.818Z,21.15
2023-01-27T11:38:59.098Z,20.40
2023-01-27T11:43:03.191Z,24.25
2023-01-27T11:47:09.531Z,23.63
2023-01-27T11:51:17.487Z,21.92
2023-01-27T11:55:22.645Z,20.95
2023-01-27T11:59:29.792Z,22.95
2023-01-27T12:03:49.496Z,23.98
2023-01-27T12:07:55.823Z,26.50
2023-01-27T12:12:11.734Z,19.48
2023-01-27T12:16:15.415Z,25.73
2023-01-27T12:20:31.955Z,24.17
2023-01-27T12:28:42.605Z,27.85
2023-01-27T12:32:48.319Z,22.73
2023-01-27T12:36:53.175Z,25.42
2023-01-27T12:41:00.434Z,22.65
2023-01-27T12:45:22.968Z,20.10
2023-01-27T12:49:31.551Z,22.20
2023-01-27T12:53:35.723Z,25.00
2023-01-27T12:57:44.781Z,24.58
2023-01-27T13:02:00.700Z,21.85
2023-01-27T13:06:03.710Z,25.58
2023-01-27T13:10:19.871Z,23.75
2023-01-27T13:14:22.930Z,23.77
2023-01-27T13:18:26.197Z,24.80
2023-01-27T13:22:33.238Z,25.75
2023-01-27T13:26:38.442Z,27.27
2023-01-27T13:30:44.148Z,30.70
2023-01-27T13:34:50.475Z,21.55
2023-01-27T13:39:00.364Z,25.23
2023-01-27T13:43:12.176Z,22.48
2023-01-27T13:47:19.334Z,24.00
2023-01-27T13:51:23.418Z,23.02
2023-01-27T13:55:39.930Z,24.45
2023-01-27T13:59:57.680Z,24.50
2023-01-27T14:04:28.511Z,23.75
2023-01-27T14:08:45.796Z,24.92
2023-01-27T14:13:07.452Z,22.90
2023-01-27T14:17:26.572Z,28.48
2023-01-27T14:21:46.955Z,28.75
2023-01-27T14:26:00.354Z,25.45
2023-01-27T14:30:15.835Z,25.00
2023-01-27T14:34:33.598Z,22.10
2023-01-27T14:38:44.633Z,31.70
2023-01-27T14:42:58.716Z,25.55
2023-01-27T14:47:11.725Z,24.58
2023-01-27T14:51:26.168Z,27.23
2023-01-27T14:55:41.416Z,28.67
2023-01-27T14:59:54.131Z,26.17
2023-01-27T15:04:19.632Z,24.08
2023-01-27T15:08:31.724Z,25.52
2023-01-27T15:12:52.858Z,25.90
2023-01-27T15:17:12.275Z,30.00
2023-01-27T15:21:38.931Z,22.05
2023-01-27T15:25:48.183Z,21.65
2023-01-27T15:29:51.019Z,26.42
2023-01-27T15:33:57.242Z,22.60
2023-01-27T15:42:12.854Z,30.25
2023-01-27T15:46:24.921Z,27.85
2023-01-27T15:50:30.388Z,27.48
2023-01-27T15:54:34.551Z,32.90
2023-01-27T15:58:41.303Z,27.65
2023-01-27T16:02:47.875Z,31.27
2023-01-27T16:06:53.046Z,30.95
2023-01-27T16:11:25.102Z,31.23
2023-01-27T16:15:36.124Z,31.23
2023-01-27T16:19:44.234Z,30.88
2023-01-27T16:23:53.734Z,27.13
2023-01-27T16:28:02.777Z,27.67
2023-01-27T16:32:17.038Z,31.67
2023-01-27T16:36:24.161Z,34.25
2023-01-27T16:40:28.906Z,33.70
2023-01-27T16:44:40.753Z,34.10
2023-01-27T16:48:47.343Z,38.80
2023-01-27T16:52:50.505Z,33.50
2023-01-27T16:56:53.372Z,37.17
2023-01-27T17:00:58.559Z,35.53
2023-01-27T17:05:06.286Z,34.33
2023-01-27T17:09:21.508Z,30.10
2023-01-27T17:13:29.906Z,35.10
2023-01-27T17:17:36.105Z,40.42
2023-01-27T17:21:43.623Z,36.30
2023-01-27T17:25:46.571Z,36.05
2023-01-27T17:29:50.692Z,36.20
2023-01-27T17:34:02.005Z,33.72
2023-01-27T17:38:14.224Z,32.08
2023-01-27T17:42:18.528Z,35.30
2023-01-27T17:46:23.015Z,38.85
2023-01-27T17:50:38.743Z,30.90
2023-01-27T17:54:43.247Z,38.90
2023-01-27T17:58:47.422Z,44.50
2023-01-27T18:02:54.782Z,39.05
2023-01-27T18:06:57.639Z,37.40
2023-01-27T18:11:12.256Z,35.88
2023-01-27T18:15:38.800Z,32.03
2023-01-27T18:19:50.713Z,38.30
2023-01-27T18:23:55.712Z,35.17
2023-01-27T18:28:00.755Z,38.45
2023-01-27T18:32:16.693Z,35.25
2023-01-27T18:36:22.634Z,31.38
2023-01-27T18:40:29.312Z,36.38
2023-01-27T18:44:37.088Z,34.28
2023-01-27T18:48:40.243Z,33.28
2023-01-27T18:52:43.600Z,33.53
2023-01-27T18:56:46.391Z,33.25
2023-01-27T19:00:53.239Z,30.38
2023-01-27T19:04:56.090Z,29.33
2023-01-27T19:08:58.818Z,26.90
2023-01-27T19:13:03.030Z,30.63
2023-01-27T19:17:14.389Z,28.05
2023-01-27T19:21:39.656Z,33.00
2023-01-27T19:25:43.592Z,30.80
2023-01-27T19:29:46.634Z,34.13
2023-01-27T19:33:51.618Z,35.33
2023-01-27T19:37:56.895Z,33.53
2023-01-27T19:41:59.903Z,32.20
2023-01-27T19:46:03.101Z,35.00
2023-01-27T19:50:11.339Z,31.42
2023-01-27T19:54:14.343Z,29.92
2023-01-27T19:58:22.855Z,30.38
2023-01-27T20:02:26.139Z,33.88
2023-01-27T20:06:32.404Z,28.73
2023-01-27T20:10:35.266Z,31.80
2023-01-27T20:14:38.371Z,29.85
2023-01-27T20:18:41.401Z,33.22
2023-01-27T20:22:46.011Z,28.92
2023-01-27T20:26:48.929Z,30.02
2023-01-27T20:30:51.752Z,31.27
2023-01-27T20:34:59.025Z,32.35
2023-01-27T20:39:03.424Z,32.90
2023-01-27T20:43:06.214Z,30.30
2023-01-27T20:47:09.207Z,38.22
2023-01-27T20:51:14.513Z,36.20
2023-01-27T20:55:19.985Z,30.50
2023-01-27T20:59:22.837Z,30.83
2023-01-27T21:03:25.681Z,30.98
2023-01-27T21:07:28.529Z,27.75
2023-01-27T21:11:32.926Z,29.10
2023-01-27T21:15:35.739Z,27.40
2023-01-27T21:19:38.626Z,32.78
2023-01-27T21:23:41.392Z,33.67
2023-01-27T21:27:45.606Z,28.38
2023-01-27T21:31:48.518Z,26.52
2023-01-27T21:35:55.193Z,29.42
2023-01-27T21:39:57.959Z,30.33
2023-01-27T21:44:19.628Z,26.38
2023-01-27T21:48:22.384Z,32.97
2023-01-27T21:52:26.907Z,27.70
2023-01-27T21:56:29.733Z,27.92
2023-01-27T22:00:34.388Z,27.85
2023-01-27T22:04:37.176Z,27.08
2023-01-27T22:08:39.997Z,23.77
2023-01-27T22:12:42.930Z,26.02
2023-01-27T22:16:47.118Z,31.63
2023-01-27T22:20:49.948Z,30.35
2023-01-27T22:24:52.746Z,30.40
2023-01-27T22:28:55.536Z,29.98
2023-01-27T22:32:59.763Z,31.10
2023-01-27T22:37:02.635Z,30.40
2023-01-27T22:41:05.589Z,30.85
2023-01-27T22:45:10.222Z,32.00
2023-01-27T22:49:14.399Z,29.27
2023-01-27T22:53:17.213Z,31.95
2023-01-27T22:57:20.036Z,28.45
2023-01-27T23:01:22.924Z,29.17
2023-01-27T23:05:27.121Z,32.13
2023-01-27T23:09:29.898Z,30.40
2023-01-27T23:13:32.935Z,29.10
2023-01-27T23:17:35.754Z,28.58
2023-01-27T23:21:40.018Z,28.75
2023-01-27T23:25:44.459Z,32.63
2023-01-27T23:29:47.279Z,30.48
2023-01-27T23:33:50.034Z,34.75
2023-01-27T23:37:54.148Z,28.67
2023-01-27T23:41:56.907Z,30.13
2023-01-27T23:46:00.128Z,35.03
2023-01-27T23:50:02.992Z,32.08
2023-01-27T23:54:07.211Z,33.55
2023-01-27T23:58:10.317Z,30.85
